createdAt,value
2023-01-09T00:00:36.089Z,9.27
2023-01-09T00:03:03.770Z,8.37
2023-01-09T00:05:31.427Z,11.37
2023-01-09T00:07:59.132Z,10.47
2023-01-09T00:10:28.248Z,9.93
2023-01-09T00:12:55.891Z,8.80
2023-01-09T00:15:23.644Z,9.53
2023-01-09T00:17:51.326Z,7.17
2023-01-09T00:20:19.337Z,6.63
2023-01-09T00:22:47.032Z,11.97
2023-01-09T00:25:15.813Z,9.13
2023-01-09T00:27:44.862Z,9.30
2023-01-09T00:30:13.243Z,11.00
2023-01-09T00:32:41.565Z,9.33
2023-01-09T00:35:10.562Z,11.20
2023-01-09T00:37:38.209Z,11.93
2023-01-09T00:40:06.490Z,8.37
2023-01-09T00:42:36.529Z,9.17
2023-01-09T00:45:10.253Z,12.10
2023-01-09T00:47:40.879Z,8.57
2023-01-09T00:50:12.437Z,11.90
2023-01-09T00:52:41.048Z,7.33
2023-01-09T00:55:09.681Z,8.93
2023-01-09T00:57:37.409Z,11.23
2023-01-09T01:00:08.030Z,10.90
2023-01-09T01:02:35.953Z,13.23
2023-01-09T01:05:21.290Z,12.23
2023-01-09T01:07:48.956Z,13.20
2023-01-09T01:10:20.188Z,7.23
2023-01-09T01:12:50.382Z,7.80
2023-01-09T01:15:20.204Z,9.93
2023-01-09T01:17:48.368Z,12.30
2023-01-09T01:20:19.640Z,11.63
2023-01-09T01:22:47.578Z,10.77
2023-01-09T01:25:16.933Z,11.13
2023-01-09T01:27:45.316Z,8.23
2023-01-09T01:30:14.970Z,7.03
2023-01-09T01:32:44.091Z,10.10
2023-01-09T01:35:12.758Z,10.63
2023-01-09T01:37:40.547Z,9.67
2023-01-09T01:40:10.563Z,10.23
2023-01-09T01:42:38.437Z,9.17
2023-01-09T01:45:09.729Z,8.63
2023-01-09T01:47:47.290Z,9.40
2023-01-09T01:50:20.838Z,10.20
2023-01-09T01:52:54.431Z,11.63
2023-01-09T01:55:22.484Z,11.33
2023-01-09T01:57:52.247Z,17.13
2023-01-09T02:00:24.417Z,13.83
2023-01-09T02:02:53.547Z,14.67
2023-01-09T02:05:21.252Z,15.37
2023-01-09T02:07:48.945Z,13.47
2023-01-09T02:10:16.808Z,16.90
2023-01-09T02:12:44.562Z,13.37
2023-01-09T02:15:14.800Z,16.87
2023-01-09T02:18:21.175Z,13.73
2023-01-09T02:20:58.370Z,21.53
2023-01-09T02:24:04.542Z,13.47
2023-01-09T02:27:06.019Z,10.27
2023-01-09T02:29:46.574Z,12.80
2023-01-09T02:32:25.319Z,14.30
2023-01-09T02:34:59.113Z,13.17
2023-01-09T02:37:33.801Z,14.57
2023-01-09T02:40:06.438Z,15.70
2023-01-09T02:42:35.327Z,19.13
2023-01-09T02:45:03.021Z,15.27
2023-01-09T02:47:41.355Z,15.63
2023-01-09T02:50:12.902Z,16.47
2023-01-09T02:52:52.618Z,11.83
2023-01-09T02:55:30.690Z,16.83
2023-01-09T02:58:06.992Z,15.77
2023-01-09T03:00:41.610Z,15.17
2023-01-09T03:03:13.400Z,16.17
2023-01-09T03:05:43.939Z,19.10
2023-01-09T03:08:14.742Z,17.07
2023-01-09T03:10:45.806Z,15.87
2023-01-09T03:13:15.842Z,14.30
2023-01-09T03:15:45.909Z,11.73
2023-01-09T03:18:15.423Z,14.20
2023-01-09T03:20:44.147Z,14.50
2023-01-09T03:23:11.913Z,13.07
2023-01-09T03:25:39.705Z,12.80
2023-01-09T03:28:10.524Z,11.37
2023-01-09T03:30:38.308Z,13.27
2023-01-09T03:33:06.050Z,12.67
2023-01-09T03:35:35.145Z,15.73
2023-01-09T03:38:02.885Z,15.40
2023-01-09T03:40:30.569Z,10.13
2023-01-09T03:42:58.281Z,10.60
2023-01-09T03:45:26.016Z,11.40
2023-01-09T03:47:53.843Z,15.10
2023-01-09T03:50:21.540Z,10.10
2023-01-09T03:52:50.750Z,11.63
2023-01-09T03:55:18.474Z,11.73
2023-01-09T03:57:46.202Z,8.97
2023-01-09T04:00:14.905Z,10.40
2023-01-09T04:02:43.229Z,10.23
2023-01-09T04:05:11.110Z,7.30
2023-01-09T04:07:38.931Z,7.73
2023-01-09T04:10:09.269Z,9.10
2023-01-09T04:12:36.933Z,8.03
2023-01-09T04:15:05.073Z,7.17
2023-01-09T04:17:32.801Z,8.33
2023-01-09T04:20:00.465Z,10.13
2023-01-09T04:22:28.185Z,9.53
2023-01-09T04:24:55.922Z,7.60
2023-01-09T04:27:24.991Z,6.13
2023-01-09T04:29:52.635Z,5.57
2023-01-09T04:32:20.627Z,6.23
2023-01-09T04:34:48.370Z,6.33
2023-01-09T04:37:16.077Z,8.57
2023-01-09T04:39:44.415Z,7.60
2023-01-09T04:42:12.407Z,8.30
2023-01-09T04:44:41.422Z,6.83
2023-01-09T04:47:09.118Z,9.37
2023-01-09T04:49:36.956Z,9.47
2023-01-09T04:52:04.899Z,9.00
2023-01-09T04:54:32.566Z,6.03
2023-01-09T04:57:00.263Z,6.47
2023-01-09T04:59:27.937Z,9.27
2023-01-09T05:01:58.393Z,6.53
2023-01-09T05:04:26.298Z,8.30
2023-01-09T05:06:53.977Z,7.97
2023-01-09T05:09:22.066Z,6.80
2023-01-09T05:11:50.157Z,8.57
2023-01-09T05:14:17.936Z,8.07
2023-01-09T05:16:45.664Z,8.60
2023-01-09T05:19:15.078Z,8.20
2023-01-09T05:21:42.747Z,7.40
2023-01-09T05:24:10.534Z,6.50
2023-01-09T05:26:38.205Z,7.07
2023-01-09T05:29:05.958Z,7.67
2023-01-09T05:31:33.631Z,6.37
2023-01-09T05:34:01.351Z,7.80
2023-01-09T05:36:30.588Z,7.67
2023-01-09T05:38:58.813Z,4.73
2023-01-09T05:41:26.695Z,8.07
2023-01-09T05:43:54.433Z,6.90
2023-01-09T05:46:22.407Z,6.97
2023-01-09T05:48:50.139Z,7.00
2023-01-09T05:51:17.830Z,7.53
2023-01-09T05:53:46.869Z,8.67
2023-01-09T05:56:14.526Z,7.37
2023-01-09T05:58:42.487Z,7.20
2023-01-09T06:01:10.419Z,7.37
2023-01-09T06:03:38.089Z,7.67
2023-01-09T06:06:06.162Z,6.07
2023-01-09T06:08:33.879Z,4.83
2023-01-09T06:11:02.964Z,5.70
2023-01-09T06:13:30.658Z,5.87
2023-01-09T06:15:58.441Z,6.87
2023-01-09T06:18:26.147Z,4.97
2023-01-09T06:20:53.835Z,5.60
2023-01-09T06:23:21.534Z,5.47
2023-01-09T06:25:49.181Z,3.87
2023-01-09T06:28:18.177Z,3.87
2023-01-09T06:30:46.529Z,3.77
2023-01-09T06:33:14.324Z,3.03
2023-01-09T06:35:42.061Z,3.03
2023-01-09T06:38:09.806Z,3.33
2023-01-09T06:40:37.514Z,3.33
2023-01-09T06:43:05.270Z,2.90
2023-01-09T06:45:34.528Z,2.87
2023-01-09T06:48:02.233Z,2.90
2023-01-09T06:50:29.953Z,2.33
2023-01-09T06:52:59.776Z,2.63
2023-01-09T06:55:27.513Z,2.60
2023-01-09T06:57:55.243Z,2.70
2023-01-09T07:00:23.268Z,3.00
2023-01-09T07:02:52.318Z,2.20
2023-01-09T07:05:19.999Z,2.50
2023-01-09T07:07:47.646Z,2.60
2023-01-09T07:10:15.857Z,2.73
2023-01-09T07:12:43.669Z,2.90
2023-01-09T07:15:12.134Z,3.20
2023-01-09T07:17:39.838Z,2.50
2023-01-09T07:20:10.471Z,2.70
2023-01-09T07:22:38.129Z,2.20
2023-01-09T07:25:06.744Z,2.30
2023-01-09T07:27:34.465Z,2.73
2023-01-09T07:30:02.134Z,2.77
2023-01-09T07:32:29.925Z,2.33
2023-01-09T07:34:57.666Z,2.00
2023-01-09T07:37:26.706Z,2.03
2023-01-09T07:39:54.472Z,2.50
2023-01-09T07:42:22.300Z,2.00
2023-01-09T07:44:50.005Z,2.33
2023-01-09T07:47:17.957Z,2.03
2023-01-09T07:49:45.706Z,1.80
2023-01-09T07:52:13.516Z,1.77
2023-01-09T07:54:42.597Z,1.50
2023-01-09T07:57:10.520Z,1.43
2023-01-09T07:59:38.229Z,1.37
2023-01-09T08:02:07.224Z,1.83
2023-01-09T08:04:35.035Z,1.10
2023-01-09T08:07:03.597Z,1.00
2023-01-09T08:09:31.370Z,0.77
2023-01-09T08:12:00.451Z,1.00
2023-01-09T08:14:28.156Z,1.07
2023-01-09T08:16:55.889Z,1.03
2023-01-09T08:19:24.011Z,1.30
2023-01-09T08:21:51.733Z,1.20
2023-01-09T08:24:19.470Z,1.37
2023-01-09T08:26:47.171Z,1.80
2023-01-09T08:29:16.293Z,1.00
2023-01-09T08:31:43.969Z,1.20
2023-01-09T08:34:11.623Z,1.10
2023-01-09T08:36:39.431Z,1.97
2023-01-09T08:39:07.165Z,1.00
2023-01-09T08:41:52.823Z,1.77
2023-01-09T08:44:39.326Z,0.80
2023-01-09T08:47:07.205Z,0.80
2023-01-09T08:49:35.385Z,1.00
2023-01-09T08:52:03.125Z,0.80
2023-01-09T08:54:31.463Z,0.87
2023-01-09T08:56:59.230Z,0.80
2023-01-09T08:59:28.289Z,0.90
2023-01-09T09:01:56.016Z,1.10
2023-01-09T09:04:23.758Z,1.40
2023-01-09T09:06:51.484Z,1.10
2023-01-09T09:09:19.442Z,1.80
2023-01-09T09:11:47.623Z,1.20
2023-01-09T09:14:32.916Z,1.10
2023-01-09T09:17:02.031Z,1.30
2023-01-09T09:19:29.740Z,1.37
2023-01-09T09:21:57.438Z,1.33
2023-01-09T09:24:25.133Z,2.30
2023-01-09T09:26:52.807Z,1.10
2023-01-09T09:29:20.482Z,1.10
2023-01-09T09:31:48.154Z,1.10
2023-01-09T09:34:17.221Z,1.40
2023-01-09T09:36:45.326Z,1.53
2023-01-09T09:39:12.982Z,1.50
2023-01-09T09:42:12.324Z,2.40
2023-01-09T09:44:54.351Z,1.47
2023-01-09T09:47:41.620Z,1.60
2023-01-09T09:50:28.329Z,1.50
2023-01-09T09:52:59.838Z,1.53
2023-01-09T09:55:31.596Z,2.77
2023-01-09T09:58:01.923Z,1.23
2023-01-09T10:00:30.237Z,1.10
2023-01-09T10:03:01.879Z,1.10
2023-01-09T10:05:34.219Z,1.27
2023-01-09T10:08:15.425Z,1.10
2023-01-09T10:10:47.971Z,0.90
2023-01-09T10:13:36.265Z,0.90
2023-01-09T10:16:09.685Z,1.20
2023-01-09T10:18:48.986Z,1.37
2023-01-09T10:21:20.709Z,1.27
2023-01-09T10:23:57.726Z,1.90
2023-01-09T10:26:29.290Z,1.13
2023-01-09T10:29:41.743Z,1.93
2023-01-09T10:32:19.785Z,1.10
2023-01-09T10:34:53.786Z,1.50
2023-01-09T10:37:24.706Z,1.73
2023-01-09T10:39:55.661Z,1.83
2023-01-09T10:42:30.727Z,1.50
2023-01-09T10:45:02.587Z,1.47
2023-01-09T10:47:33.083Z,1.30
2023-01-09T10:50:01.110Z,1.50
2023-01-09T10:52:35.771Z,1.63
2023-01-09T10:55:08.440Z,1.60
2023-01-09T10:57:42.441Z,1.50
2023-01-09T11:00:17.832Z,2.00
2023-01-09T11:02:45.884Z,1.87
2023-01-09T11:05:17.069Z,1.80
2023-01-09T11:07:47.815Z,2.67
2023-01-09T11:10:17.401Z,1.60
2023-01-09T11:12:45.185Z,1.90
2023-01-09T11:15:30.037Z,2.30
2023-01-09T11:18:20.616Z,2.50
2023-01-09T11:20:48.645Z,2.40
2023-01-09T11:23:32.382Z,3.03
2023-01-09T11:26:01.634Z,2.27
2023-01-09T11:28:29.627Z,2.10
2023-01-09T11:31:00.719Z,2.20
2023-01-09T11:33:30.226Z,2.37
2023-01-09T11:36:04.184Z,2.00
2023-01-09T11:38:34.615Z,2.77
2023-01-09T11:41:04.346Z,2.20
2023-01-09T11:43:34.766Z,2.30
2023-01-09T11:46:04.885Z,2.70
2023-01-09T11:48:35.717Z,3.07
2023-01-09T11:51:06.838Z,2.80
2023-01-09T11:53:51.169Z,7.03
2023-01-09T11:56:18.849Z,9.80
2023-01-09T11:58:46.671Z,9.50
2023-01-09T12:01:31.206Z,8.03
2023-01-09T12:04:25.028Z,5.47
2023-01-09T12:07:07.078Z,5.10
2023-01-09T12:09:42.466Z,3.70
2023-01-09T12:12:19.836Z,3.67
2023-01-09T12:14:56.363Z,2.97
2023-01-09T12:17:44.062Z,3.53
2023-01-09T12:20:32.261Z,3.53
2023-01-09T12:23:08.179Z,3.80
2023-01-09T12:25:43.409Z,3.93
2023-01-09T12:28:40.055Z,3.97
2023-01-09T12:31:18.237Z,3.50
2023-01-09T12:33:53.995Z,4.10
2023-01-09T12:36:27.051Z,3.70
2023-01-09T12:38:56.431Z,4.03
2023-01-09T12:41:52.622Z,4.57
2023-01-09T12:44:36.059Z,4.90
2023-01-09T12:47:13.106Z,5.10
2023-01-09T12:49:43.889Z,5.00
2023-01-09T12:52:17.379Z,5.43
2023-01-09T12:54:48.839Z,5.40
2023-01-09T12:57:24.447Z,5.63
2023-01-09T12:59:54.284Z,5.40
2023-01-09T13:02:27.753Z,5.60
2023-01-09T13:04:59.224Z,4.87
2023-01-09T13:07:30.053Z,5.77
2023-01-09T13:10:01.253Z,4.40
2023-01-09T13:12:35.126Z,4.70
2023-01-09T13:15:06.000Z,5.07
2023-01-09T13:17:41.670Z,4.17
2023-01-09T13:20:20.209Z,4.70
2023-01-09T13:22:50.726Z,5.23
2023-01-09T13:25:38.078Z,4.83
2023-01-09T13:28:15.012Z,5.57
2023-01-09T13:31:22.258Z,5.67
2023-01-09T13:33:52.809Z,4.07
2023-01-09T13:36:25.639Z,4.10
2023-01-09T13:38:55.104Z,4.47
2023-01-09T13:41:40.528Z,4.10
2023-01-09T13:44:24.321Z,3.90
2023-01-09T13:46:53.966Z,4.00
2023-01-09T13:49:49.907Z,4.00
2023-01-09T13:52:32.727Z,3.90
2023-01-09T13:55:02.804Z,3.43
2023-01-09T13:57:34.719Z,3.43
2023-01-09T14:00:45.445Z,3.80
2023-01-09T14:03:20.527Z,3.63
2023-01-09T14:06:19.568Z,3.97
2023-01-09T14:08:49.307Z,3.47
2023-01-09T14:11:22.305Z,3.53
2023-01-09T14:14:02.473Z,4.10
2023-01-09T14:16:30.992Z,4.33
2023-01-09T14:19:05.005Z,4.07
2023-01-09T14:21:51.194Z,4.60
2023-01-09T14:24:25.118Z,5.10
2023-01-09T14:26:57.038Z,5.07
2023-01-09T14:29:41.284Z,5.17
2023-01-09T14:32:38.844Z,5.60
2023-01-09T14:35:14.466Z,5.73
2023-01-09T14:37:43.165Z,5.43
2023-01-09T14:40:17.627Z,5.70
2023-01-09T14:42:45.763Z,5.63
2023-01-09T14:45:19.331Z,5.73
2023-01-09T14:47:50.409Z,5.90
2023-01-09T14:50:26.060Z,6.43
2023-01-09T14:52:58.577Z,6.20
2023-01-09T14:55:28.809Z,5.93
2023-01-09T14:57:57.468Z,6.30
2023-01-09T15:00:25.411Z,5.97
2023-01-09T15:02:53.919Z,6.53
2023-01-09T15:05:24.730Z,6.23
2023-01-09T15:07:54.584Z,6.53
2023-01-09T15:10:24.881Z,6.70
2023-01-09T15:12:54.444Z,7.03
2023-01-09T15:15:23.325Z,7.00
2023-01-09T15:17:55.463Z,7.33
2023-01-09T15:20:26.802Z,7.57
2023-01-09T15:22:55.256Z,7.80
2023-01-09T15:25:33.995Z,8.20
2023-01-09T15:28:25.098Z,9.03
2023-01-09T15:30:55.564Z,9.97
2023-01-09T15:33:23.441Z,11.57
2023-01-09T15:35:58.505Z,8.80
2023-01-09T15:38:26.587Z,5.23
2023-01-09T15:40:55.266Z,5.40
2023-01-09T15:43:24.554Z,3.60
2023-01-09T15:45:53.218Z,2.63
2023-01-09T15:48:24.504Z,2.00
2023-01-09T15:50:56.388Z,1.07
2023-01-09T15:53:26.401Z,0.90
2023-01-09T15:56:17.268Z,2.10
2023-01-09T15:58:47.651Z,1.33
2023-01-09T16:01:27.510Z,2.10
2023-01-09T16:03:56.751Z,0.67
2023-01-09T16:06:28.520Z,1.40
2023-01-09T16:08:57.968Z,0.93
2023-01-09T16:11:27.416Z,1.47
2023-01-09T16:13:56.976Z,0.70
2023-01-09T16:16:27.643Z,0.67
2023-01-09T16:18:56.499Z,0.70
2023-01-09T16:21:38.069Z,1.13
2023-01-09T16:24:23.816Z,0.60
2023-01-09T16:26:53.112Z,1.00
2023-01-09T16:29:36.428Z,1.00
2023-01-09T16:32:05.843Z,0.50
2023-01-09T16:34:35.808Z,0.63
2023-01-09T16:37:05.805Z,1.10
2023-01-09T16:39:33.541Z,1.80
2023-01-09T16:42:19.325Z,0.60
2023-01-09T16:44:47.014Z,0.53
2023-01-09T16:47:14.701Z,1.00
2023-01-09T16:49:42.396Z,0.57
2023-01-09T16:52:17.663Z,2.00
2023-01-09T16:54:46.846Z,0.80
2023-01-09T16:57:17.688Z,1.73
2023-01-09T16:59:45.746Z,1.10
2023-01-09T17:02:17.716Z,1.40
2023-01-09T17:04:45.445Z,1.00
2023-01-09T17:07:14.157Z,1.00
2023-01-09T17:09:43.541Z,1.10
2023-01-09T17:12:16.525Z,1.77
2023-01-09T17:14:44.179Z,1.00
2023-01-09T17:17:12.534Z,0.90
2023-01-09T17:19:40.591Z,1.60
2023-01-09T17:22:08.633Z,0.80
2023-01-09T17:24:54.839Z,1.10
2023-01-09T17:27:41.523Z,0.73
2023-01-09T17:30:18.923Z,1.57
2023-01-09T17:32:47.151Z,0.80
2023-01-09T17:35:15.884Z,0.53
2023-01-09T17:37:43.953Z,0.63
2023-01-09T17:40:17.999Z,1.47
2023-01-09T17:42:47.066Z,0.60
2023-01-09T17:45:14.864Z,1.10
2023-01-09T17:47:42.544Z,0.70
2023-01-09T17:50:18.246Z,0.50
2023-01-09T17:52:45.990Z,0.57
2023-01-09T17:55:13.812Z,0.80
2023-01-09T17:57:42.170Z,1.40
2023-01-09T18:00:24.394Z,1.20
2023-01-09T18:02:52.364Z,1.03
2023-01-09T18:05:20.124Z,1.00
2023-01-09T18:07:47.843Z,0.60
2023-01-09T18:10:16.288Z,0.50
2023-01-09T18:12:44.055Z,0.60
2023-01-09T18:15:13.280Z,1.60
2023-01-09T18:17:41.378Z,0.77
2023-01-09T18:20:10.660Z,2.37
2023-01-09T18:22:38.497Z,0.70
2023-01-09T18:25:08.005Z,0.80
2023-01-09T18:27:37.146Z,0.60
2023-01-09T18:30:06.789Z,0.70
2023-01-09T18:32:36.098Z,0.70
2023-01-09T18:35:03.899Z,0.60
2023-01-09T18:37:31.632Z,1.30
2023-01-09T18:39:59.338Z,0.97
2023-01-09T18:42:27.012Z,0.87
2023-01-09T18:44:54.760Z,0.80
2023-01-09T18:47:22.440Z,0.57
2023-01-09T18:49:51.519Z,0.50
2023-01-09T18:52:19.425Z,0.43
2023-01-09T18:54:47.152Z,0.40
2023-01-09T18:57:14.815Z,0.50
2023-01-09T18:59:42.456Z,0.80
2023-01-09T19:02:19.508Z,0.73
2023-01-09T19:04:47.200Z,0.50
2023-01-09T19:07:16.665Z,0.60
2023-01-09T19:09:44.605Z,0.40
2023-01-09T19:12:12.551Z,0.40
2023-01-09T19:14:40.366Z,1.03
2023-01-09T19:17:08.071Z,0.63
2023-01-09T19:19:35.780Z,0.40
2023-01-09T19:22:03.561Z,0.77
2023-01-09T19:24:32.997Z,0.53
2023-01-09T19:27:01.041Z,0.40
2023-01-09T19:29:28.856Z,0.83
2023-01-09T19:31:56.899Z,0.50
2023-01-09T19:34:27.463Z,0.80
2023-01-09T19:36:55.165Z,1.00
2023-01-09T19:39:22.914Z,0.60
2023-01-09T19:41:53.967Z,0.67
2023-01-09T19:44:21.664Z,0.50
2023-01-09T19:46:49.579Z,0.70
2023-01-09T19:49:17.443Z,0.60
2023-01-09T19:51:45.963Z,0.70
2023-01-09T19:54:13.717Z,0.77
2023-01-09T19:56:43.956Z,0.80
2023-01-09T19:59:13.630Z,0.43
2023-01-09T20:01:42.518Z,1.10
2023-01-09T20:04:13.773Z,0.40
2023-01-09T20:06:42.584Z,0.40
2023-01-09T20:09:11.148Z,0.70
2023-01-09T20:11:41.122Z,0.50
2023-01-09T20:14:08.860Z,0.60
2023-01-09T20:16:38.056Z,0.70
2023-01-09T20:19:08.770Z,0.50
2023-01-09T20:21:36.949Z,0.50
2023-01-09T20:24:06.282Z,0.50
2023-01-09T20:26:34.436Z,0.50
2023-01-09T20:29:02.196Z,0.70
2023-01-09T20:31:31.391Z,0.50
2023-01-09T20:34:00.722Z,0.70
2023-01-09T20:36:30.110Z,0.67
2023-01-09T20:38:58.796Z,0.60
2023-01-09T20:41:26.716Z,0.60
2023-01-09T20:43:56.652Z,0.63
2023-01-09T20:46:25.694Z,0.80
2023-01-09T20:48:57.363Z,1.47
2023-01-09T20:51:26.637Z,1.00
2023-01-09T20:53:55.792Z,1.13
2023-01-09T20:56:24.126Z,0.70
2023-01-09T20:58:51.980Z,1.03
2023-01-09T21:01:20.225Z,1.30
2023-01-09T21:03:48.014Z,0.57
2023-01-09T21:06:17.844Z,0.60
2023-01-09T21:08:47.904Z,0.90
2023-01-09T21:11:16.344Z,0.70
2023-01-09T21:13:44.213Z,0.60
2023-01-09T21:16:13.570Z,0.70
2023-01-09T21:18:41.580Z,0.73
2023-01-09T21:21:12.593Z,0.93
2023-01-09T21:23:41.728Z,0.60
2023-01-09T21:26:11.854Z,0.40
2023-01-09T21:28:46.047Z,0.70
2023-01-09T21:31:14.322Z,0.70
2023-01-09T21:33:42.113Z,0.77
2023-01-09T21:36:10.639Z,0.93
2023-01-09T21:38:38.360Z,0.80
2023-01-09T21:41:20.221Z,0.73
2023-01-09T21:44:07.014Z,1.00
2023-01-09T21:46:52.959Z,0.80
2023-01-09T21:49:23.058Z,1.73
2023-01-09T21:51:50.760Z,1.00
2023-01-09T21:54:18.461Z,1.10
2023-01-09T21:56:46.248Z,1.20
2023-01-09T21:59:16.618Z,1.20
2023-01-09T22:01:44.488Z,1.20
2023-01-09T22:04:13.794Z,1.50
2023-01-09T22:06:41.547Z,1.43
2023-01-09T22:09:10.016Z,1.47
2023-01-09T22:11:38.354Z,1.60
2023-01-09T22:14:06.192Z,1.60
2023-01-09T22:16:35.288Z,1.53
2023-01-09T22:19:03.125Z,1.63
2023-01-09T22:21:30.778Z,1.53
2023-01-09T22:24:01.455Z,1.80
2023-01-09T22:26:30.081Z,1.80
2023-01-09T22:28:58.141Z,2.40
2023-01-09T22:31:28.508Z,1.60
2023-01-09T22:33:58.874Z,1.70
2023-01-09T22:36:28.302Z,1.60
2023-01-09T22:38:56.780Z,1.80
2023-01-09T22:41:24.630Z,2.27
2023-01-09T22:43:52.683Z,2.47
2023-01-09T22:46:20.456Z,2.43
2023-01-09T22:48:48.381Z,2.30
2023-01-09T22:51:19.901Z,2.50
2023-01-09T22:53:47.655Z,3.50
2023-01-09T22:56:17.549Z,3.07
2023-01-09T22:58:46.287Z,3.00
2023-01-09T23:01:14.045Z,2.70
2023-01-09T23:03:41.777Z,5.03
2023-01-09T23:06:12.111Z,3.03
2023-01-09T23:08:42.913Z,3.13
2023-01-09T23:11:12.794Z,3.27
2023-01-09T23:13:40.793Z,3.00
2023-01-09T23:16:08.786Z,3.40
2023-01-09T23:18:36.514Z,3.53
2023-01-09T23:21:05.661Z,3.50
2023-01-09T23:23:33.572Z,4.17
2023-01-09T23:26:05.451Z,4.30
2023-01-09T23:28:33.388Z,3.93
2023-01-09T23:31:01.273Z,4.90
2023-01-09T23:33:28.967Z,3.97
2023-01-09T23:35:58.790Z,4.60
2023-01-09T23:38:26.542Z,4.50
2023-01-09T23:40:57.426Z,3.93
2023-01-09T23:43:25.532Z,4.07
2023-01-09T23:45:53.742Z,4.80
2023-01-09T23:48:21.545Z,4.40
2023-01-09T23:50:50.745Z,4.70
2023-01-09T23:53:18.701Z,4.67
2023-01-09T23:55:46.496Z,4.70
2023-01-09T23:58:14.196Z,4.77
